createdAt,value
2022-11-07T00:00:50.140Z,9.1
2022-11-07T00:01:52.544Z,9
2022-11-07T00:02:56.876Z,9.1
2022-11-07T00:04:01.923Z,9.1
2022-11-07T00:05:05.979Z,9.1
2022-11-07T00:06:10.051Z,9
2022-11-07T00:07:15.102Z,9.1
2022-11-07T00:08:19.237Z,9.1
2022-11-07T00:09:23.819Z,9.1
2022-11-07T00:10:28.394Z,9.1
2022-11-07T00:11:32.494Z,9.1
2022-11-07T00:12:37.046Z,9.1
2022-11-07T00:13:41.574Z,9.1
2022-11-07T00:14:45.618Z,9.1
2022-11-07T00:15:49.888Z,9
2022-11-07T00:16:59.728Z,9
2022-11-07T00:18:04.231Z,9
2022-11-07T00:19:08.956Z,9
2022-11-07T00:20:13.269Z,9
2022-11-07T00:21:17.817Z,9.1
2022-11-07T00:22:21.969Z,9
2022-11-07T00:23:26.012Z,9
2022-11-07T00:24:30.565Z,8.9
2022-11-07T00:25:34.588Z,9
2022-11-07T00:26:38.932Z,9
2022-11-07T00:27:43.463Z,9
2022-11-07T00:28:48.205Z,9
2022-11-07T00:29:52.520Z,9
2022-11-07T00:30:56.679Z,9.1
2022-11-07T00:32:00.905Z,9.1
2022-11-07T00:33:05.268Z,9.1
2022-11-07T00:34:09.301Z,9.1
2022-11-07T00:35:14.236Z,9
2022-11-07T00:36:18.651Z,9.1
2022-11-07T00:37:23.104Z,9.1
2022-11-07T00:38:27.704Z,9.2
2022-11-07T00:39:32.188Z,9.2
2022-11-07T00:40:36.385Z,9.2
2022-11-07T00:41:40.420Z,9.2
2022-11-07T00:42:45.070Z,9.2
2022-11-07T00:43:49.852Z,9.2
2022-11-07T00:44:54.280Z,9.2
2022-11-07T00:45:58.822Z,9.2
2022-11-07T00:47:02.917Z,9.2
2022-11-07T00:48:07.512Z,9.2
2022-11-07T00:49:12.024Z,9.2
2022-11-07T00:50:16.732Z,9.2
2022-11-07T00:51:21.362Z,9.2
2022-11-07T00:52:25.839Z,9.2
2022-11-07T00:53:30.364Z,9.2
2022-11-07T00:54:34.548Z,9.2
2022-11-07T00:55:39.111Z,9.2
2022-11-07T00:56:43.533Z,9.2
2022-11-07T00:57:47.668Z,9.2
2022-11-07T00:58:51.731Z,9.2
2022-11-07T00:59:58.899Z,9.2
2022-11-07T01:01:03.096Z,9.2
2022-11-07T01:02:10.258Z,9.2
2022-11-07T01:03:14.645Z,9.2
2022-11-07T01:04:23.803Z,9.2
2022-11-07T01:05:33.080Z,9.2
2022-11-07T01:06:37.199Z,9.2
2022-11-07T01:07:41.764Z,9.2
2022-11-07T01:08:46.265Z,9.2
2022-11-07T01:09:50.485Z,9.2
2022-11-07T01:10:55.029Z,9.2
2022-11-07T01:11:59.684Z,9.2
2022-11-07T01:13:04.077Z,9.1
2022-11-07T01:14:08.243Z,9.1
2022-11-07T01:15:12.341Z,9.1
2022-11-07T01:16:16.980Z,9.1
2022-11-07T01:17:21.998Z,9.1
2022-11-07T01:18:26.499Z,9.1
2022-11-07T01:19:30.812Z,9.1
2022-11-07T01:20:35.204Z,9.1
2022-11-07T01:21:39.392Z,9.1
2022-11-07T01:22:44.063Z,9.1
2022-11-07T01:23:48.013Z,9
2022-11-07T01:24:52.672Z,9.1
2022-11-07T01:25:57.184Z,9
2022-11-07T01:27:07.953Z,9.1
2022-11-07T01:28:12.081Z,9.1
2022-11-07T01:29:16.904Z,9.1
2022-11-07T01:30:21.177Z,9
2022-11-07T01:31:26.146Z,9
2022-11-07T01:32:30.305Z,9
2022-11-07T01:33:34.947Z,9.1
2022-11-07T01:34:39.527Z,9.1
2022-11-07T01:35:44.023Z,9.1
2022-11-07T01:36:48.243Z,9.1
2022-11-07T01:37:52.739Z,9.1
2022-11-07T01:38:56.779Z,9
2022-11-07T01:40:00.794Z,9
2022-11-07T01:41:05.467Z,9
2022-11-07T01:42:15.164Z,9.1
2022-11-07T01:43:19.648Z,9.1
2022-11-07T01:44:23.826Z,9
2022-11-07T01:45:27.790Z,9
2022-11-07T01:46:31.972Z,9
2022-11-07T01:47:41.639Z,9.1
2022-11-07T01:48:46.229Z,9.1
2022-11-07T01:49:50.530Z,9.1
2022-11-07T01:50:54.925Z,9.1
2022-11-07T01:51:59.557Z,9.1
2022-11-07T01:53:10.258Z,9.1
2022-11-07T01:54:14.979Z,9.1
2022-11-07T01:55:19.270Z,9.1
2022-11-07T01:56:26.522Z,9.2
2022-11-07T01:57:31.085Z,9.2
2022-11-07T01:58:43.717Z,9.1
2022-11-07T01:59:47.868Z,9.1
2022-11-07T02:00:51.987Z,9.1
2022-11-07T02:01:56.671Z,9.2
2022-11-07T02:03:01.235Z,9.2
2022-11-07T02:04:08.187Z,9.2
2022-11-07T02:05:12.708Z,9.2
2022-11-07T02:06:21.967Z,9.2
2022-11-07T02:07:34.548Z,9.2
2022-11-07T02:08:38.762Z,9.2
2022-11-07T02:09:42.919Z,9.2
2022-11-07T02:10:47.492Z,9.2
2022-11-07T02:11:51.743Z,9.1
2022-11-07T02:12:56.293Z,9.2
2022-11-07T02:14:00.742Z,9.2
2022-11-07T02:15:04.867Z,9.2
2022-11-07T02:16:09.653Z,9.2
2022-11-07T02:17:13.977Z,9.2
2022-11-07T02:18:18.373Z,9.2
2022-11-07T02:19:22.987Z,9.3
2022-11-07T02:20:32.243Z,9.2
2022-11-07T02:21:36.293Z,9.2
2022-11-07T02:22:40.378Z,9.3
2022-11-07T02:23:49.719Z,9.2
2022-11-07T02:24:54.414Z,9.2
2022-11-07T02:25:58.801Z,9.2
2022-11-07T02:27:03.056Z,9.2
2022-11-07T02:28:07.634Z,9.2
2022-11-07T02:29:12.109Z,9.3
2022-11-07T02:30:16.365Z,9.2
2022-11-07T02:31:26.398Z,9.2
2022-11-07T02:32:30.734Z,9.2
2022-11-07T02:33:34.981Z,9.2
2022-11-07T02:34:39.182Z,9.2
2022-11-07T02:35:43.805Z,9.2
2022-11-07T02:36:48.225Z,9.2
2022-11-07T02:37:52.481Z,9.2
2022-11-07T02:38:57.122Z,9.2
2022-11-07T02:40:01.193Z,9.1
2022-11-07T02:41:05.858Z,9.2
2022-11-07T02:42:15.403Z,9.2
2022-11-07T02:43:20.077Z,9.1
2022-11-07T02:44:24.571Z,9.1
2022-11-07T02:45:29.094Z,9.1
2022-11-07T02:46:33.732Z,9.1
2022-11-07T02:47:38.256Z,9.1
2022-11-07T02:48:42.825Z,9.1
2022-11-07T02:49:47.392Z,9.1
2022-11-07T02:50:51.527Z,9.1
2022-11-07T02:51:56.112Z,9.1
2022-11-07T02:53:00.588Z,9.1
2022-11-07T02:54:04.841Z,9.1
2022-11-07T02:55:09.266Z,9.1
2022-11-07T02:56:13.405Z,9.1
2022-11-07T02:57:18.018Z,9.1
2022-11-07T02:58:22.832Z,9.1
2022-11-07T02:59:27.383Z,9.2
2022-11-07T03:00:31.437Z,9.2
2022-11-07T03:01:35.909Z,9.2
2022-11-07T03:02:40.783Z,9.2
2022-11-07T03:03:47.952Z,9.1
2022-11-07T03:04:52.409Z,9.2
2022-11-07T03:05:56.930Z,9.2
2022-11-07T03:07:01.393Z,9.2
2022-11-07T03:08:06.262Z,9.2
2022-11-07T03:09:10.505Z,9.2
2022-11-07T03:10:15.073Z,9.2
2022-11-07T03:11:19.994Z,9.2
2022-11-07T03:12:24.236Z,9.2
2022-11-07T03:13:28.233Z,9.1
2022-11-07T03:14:32.763Z,9.1
2022-11-07T03:15:36.869Z,9.1
2022-11-07T03:16:40.899Z,9.2
2022-11-07T03:17:45.092Z,9.1
2022-11-07T03:18:49.545Z,9.2
2022-11-07T03:19:54.175Z,9.1
2022-11-07T03:20:58.421Z,9.1
2022-11-07T03:22:02.861Z,9.1
2022-11-07T03:23:07.041Z,9
2022-11-07T03:24:11.129Z,9
2022-11-07T03:25:15.834Z,9
2022-11-07T03:26:20.169Z,9
2022-11-07T03:27:24.377Z,9
2022-11-07T03:28:28.920Z,9
2022-11-07T03:29:33.359Z,9.1
2022-11-07T03:30:37.593Z,9.1
2022-11-07T03:31:42.561Z,9
2022-11-07T03:32:46.766Z,9
2022-11-07T03:33:53.985Z,9
2022-11-07T03:34:58.405Z,9
2022-11-07T03:36:02.579Z,9
2022-11-07T03:37:07.028Z,9
2022-11-07T03:38:11.301Z,8.7
2022-11-07T03:39:15.875Z,8.8
2022-11-07T03:40:20.452Z,8.8
2022-11-07T03:41:24.984Z,8.9
2022-11-07T03:42:29.440Z,8.7
2022-11-07T03:43:33.669Z,8.7
2022-11-07T03:44:38.152Z,8.7
2022-11-07T03:45:42.318Z,8.7
2022-11-07T03:46:46.957Z,8.7
2022-11-07T03:47:51.412Z,8.7
2022-11-07T03:48:55.429Z,8.7
2022-11-07T03:49:59.725Z,8.7
2022-11-07T03:51:04.125Z,8.7
2022-11-07T03:52:08.357Z,8.8
2022-11-07T03:53:13.141Z,8.9
2022-11-07T03:54:16.972Z,8.8
2022-11-07T03:55:21.420Z,8.9
2022-11-07T03:56:26.038Z,9
2022-11-07T03:57:30.022Z,9
2022-11-07T03:58:34.285Z,9
2022-11-07T03:59:38.833Z,8.8
2022-11-07T04:00:43.402Z,8.9
2022-11-07T04:01:47.990Z,8.9
2022-11-07T04:02:52.132Z,8.8
2022-11-07T04:03:56.515Z,8.8
2022-11-07T04:05:00.367Z,8.8
2022-11-07T04:06:04.819Z,8.9
2022-11-07T04:07:09.397Z,8.9
2022-11-07T04:08:14.166Z,8.7
2022-11-07T04:09:18.505Z,8.7
2022-11-07T04:10:22.653Z,8.6
2022-11-07T04:11:27.226Z,8.6
2022-11-07T04:12:37.066Z,8.7
2022-11-07T04:13:46.562Z,8.8
2022-11-07T04:14:56.446Z,8.7
2022-11-07T04:16:05.864Z,8.8
2022-11-07T04:17:15.564Z,8.8
2022-11-07T04:18:19.487Z,8.8
2022-11-07T04:19:24.144Z,8.8
2022-11-07T04:20:28.790Z,8.9
2022-11-07T04:21:33.192Z,8.8
2022-11-07T04:22:37.555Z,8.8
2022-11-07T04:23:42.115Z,8.8
2022-11-07T04:24:46.740Z,8.7
2022-11-07T04:25:51.508Z,8.6
2022-11-07T04:27:00.992Z,8.8
2022-11-07T04:28:10.642Z,8.7
2022-11-07T04:29:15.231Z,8.6
2022-11-07T04:30:19.955Z,8.6
2022-11-07T04:31:23.812Z,8.7
2022-11-07T04:32:27.973Z,8.6
2022-11-07T04:33:32.089Z,8.6
2022-11-07T04:34:36.655Z,8.7
2022-11-07T04:35:41.018Z,8.5
2022-11-07T04:36:45.308Z,8.5
2022-11-07T04:37:49.859Z,8.5
2022-11-07T04:38:54.030Z,8.4
2022-11-07T04:39:58.669Z,8.5
2022-11-07T04:41:03.216Z,8.5
2022-11-07T04:42:07.696Z,8.5
2022-11-07T04:43:12.884Z,8.6
2022-11-07T04:44:16.860Z,8.6
2022-11-07T04:45:21.424Z,8.4
2022-11-07T04:46:25.592Z,8.4
2022-11-07T04:47:30.088Z,8.4
2022-11-07T04:48:34.164Z,8.4
2022-11-07T04:49:38.720Z,8.4
2022-11-07T04:50:42.812Z,8.4
2022-11-07T04:51:47.415Z,8.3
2022-11-07T04:52:52.072Z,8.4
2022-11-07T04:53:56.664Z,8.5
2022-11-07T04:55:01.212Z,8.6
2022-11-07T04:56:05.656Z,8.6
2022-11-07T04:57:10.084Z,8.6
2022-11-07T04:58:14.904Z,8.5
2022-11-07T04:59:19.774Z,8.4
2022-11-07T05:00:24.195Z,8.4
2022-11-07T05:01:28.608Z,8.4
2022-11-07T05:02:33.325Z,8.4
2022-11-07T05:03:41.433Z,8.4
2022-11-07T05:04:41.970Z,8.3
2022-11-07T05:05:46.615Z,8.4
2022-11-07T05:06:51.095Z,8.4
2022-11-07T05:07:55.736Z,8.4
2022-11-07T05:09:00.371Z,8.4
2022-11-07T05:10:09.634Z,8.4
2022-11-07T05:11:15.587Z,8.6
2022-11-07T05:12:20.091Z,8.4
2022-11-07T05:13:24.556Z,8.4
2022-11-07T05:14:28.816Z,8.5
2022-11-07T05:15:32.714Z,8.4
2022-11-07T05:16:37.322Z,8.5
2022-11-07T05:17:41.494Z,8.6
2022-11-07T05:18:45.909Z,8.7
2022-11-07T05:19:50.070Z,8.6
2022-11-07T05:20:54.506Z,8.5
2022-11-07T05:21:58.839Z,8.5
2022-11-07T05:23:08.354Z,8.4
2022-11-07T05:24:18.071Z,8.5
2022-11-07T05:25:22.194Z,8.6
2022-11-07T05:26:26.694Z,8.6
2022-11-07T05:27:30.718Z,8.5
2022-11-07T05:28:39.005Z,8.4
2022-11-07T05:29:39.013Z,8.3
2022-11-07T05:30:43.600Z,8.5
2022-11-07T05:31:48.177Z,8.4
2022-11-07T05:32:52.344Z,8.5
2022-11-07T05:33:56.803Z,8.4
2022-11-07T05:35:00.875Z,8.4
2022-11-07T05:36:05.462Z,8.4
2022-11-07T05:37:09.471Z,8.3
2022-11-07T05:38:13.578Z,8.3
2022-11-07T05:39:17.742Z,8.3
2022-11-07T05:40:22.403Z,8.3
2022-11-07T05:41:26.982Z,8.3
2022-11-07T05:42:31.454Z,8.4
2022-11-07T05:43:35.582Z,8.4
2022-11-07T05:44:39.683Z,8.4
2022-11-07T05:45:44.345Z,8.3
2022-11-07T05:46:48.450Z,8.4
2022-11-07T05:47:52.935Z,8.4
2022-11-07T05:49:00.819Z,8.4
2022-11-07T05:50:01.151Z,8.4
2022-11-07T05:51:05.606Z,8.5
2022-11-07T05:52:09.850Z,8.6
2022-11-07T05:53:14.703Z,8.5
2022-11-07T05:54:18.486Z,8.6
2022-11-07T05:55:23.010Z,8.6
2022-11-07T05:56:27.014Z,8.6
2022-11-07T05:57:31.169Z,8.5
2022-11-07T05:58:35.294Z,8.4
2022-11-07T05:59:39.397Z,8.6
2022-11-07T06:00:44.047Z,8.5
2022-11-07T06:01:51.174Z,8.6
2022-11-07T06:02:52.668Z,8.5
2022-11-07T06:03:56.723Z,8.4
2022-11-07T06:05:00.793Z,8.5
2022-11-07T06:06:05.485Z,8.4
2022-11-07T06:07:10.078Z,8.4
2022-11-07T06:08:14.509Z,8.5
2022-11-07T06:09:18.695Z,8.6
2022-11-07T06:10:23.213Z,8.6
2022-11-07T06:11:27.794Z,8.5
2022-11-07T06:12:31.794Z,8.5
2022-11-07T06:13:35.922Z,8.6
2022-11-07T06:14:39.989Z,8.6
2022-11-07T06:15:44.522Z,8.5
2022-11-07T06:16:48.882Z,8.5
2022-11-07T06:17:53.392Z,8.5
2022-11-07T06:18:57.917Z,8.5
2022-11-07T06:20:02.481Z,8.5
2022-11-07T06:21:07.119Z,8.6
2022-11-07T06:22:11.558Z,8.5
2022-11-07T06:23:16.450Z,8.4
2022-11-07T06:24:20.241Z,8.5
2022-11-07T06:25:24.315Z,8.6
2022-11-07T06:26:28.637Z,8.6
2022-11-07T06:27:33.102Z,8.6
2022-11-07T06:28:37.650Z,8.4
2022-11-07T06:29:42.207Z,8.5
2022-11-07T06:30:46.182Z,8.5
2022-11-07T06:31:50.360Z,8.6
2022-11-07T06:32:54.397Z,8.6
2022-11-07T06:34:04.577Z,8.5
2022-11-07T06:35:08.618Z,8.4
2022-11-07T06:36:13.553Z,8.5
2022-11-07T06:37:18.373Z,8.5
2022-11-07T06:38:22.433Z,8.4
2022-11-07T06:39:26.958Z,8.5
2022-11-07T06:40:31.199Z,8.5
2022-11-07T06:41:35.242Z,8.6
2022-11-07T06:42:39.318Z,8.6
2022-11-07T06:43:43.622Z,8.6
2022-11-07T06:44:48.661Z,8.6
2022-11-07T06:45:52.990Z,8.4
2022-11-07T06:46:57.266Z,8.5
2022-11-07T06:48:01.636Z,8.4
2022-11-07T06:49:05.714Z,8.5
2022-11-07T06:50:09.993Z,8.6
2022-11-07T06:51:14.386Z,8.5
2022-11-07T06:52:18.507Z,8.5
2022-11-07T06:53:23.197Z,8.5
2022-11-07T06:54:27.734Z,8.6
2022-11-07T06:55:32.450Z,8.5
2022-11-07T06:56:42.514Z,8.6
2022-11-07T06:57:48.042Z,8.5
2022-11-07T06:58:52.119Z,8.5
2022-11-07T06:59:56.431Z,8.5
2022-11-07T07:01:00.828Z,8.6
2022-11-07T07:02:05.273Z,8.6
2022-11-07T07:03:09.929Z,8.5
2022-11-07T07:04:13.919Z,8.5
2022-11-07T07:05:21.014Z,8.6
2022-11-07T07:06:22.114Z,8.5
2022-11-07T07:07:26.124Z,8.6
2022-11-07T07:08:30.327Z,8.6
2022-11-07T07:09:34.834Z,8.5
2022-11-07T07:10:39.368Z,8.5
2022-11-07T07:11:43.575Z,8.5
2022-11-07T07:12:48.074Z,8.6
2022-11-07T07:13:52.206Z,8.6
2022-11-07T07:14:56.254Z,8.5
2022-11-07T07:16:00.774Z,8.5
2022-11-07T07:17:05.546Z,8.5
2022-11-07T07:18:09.894Z,8.6
2022-11-07T07:19:14.097Z,8.7
2022-11-07T07:20:18.410Z,8.8
2022-11-07T07:21:22.735Z,8.7
2022-11-07T07:22:26.678Z,8.7
2022-11-07T07:23:30.763Z,8.7
2022-11-07T07:24:37.988Z,8.7
2022-11-07T07:25:42.634Z,8.6
2022-11-07T07:26:46.736Z,8.6
2022-11-07T07:27:51.374Z,8.7
2022-11-07T07:28:55.802Z,8.7
2022-11-07T07:29:59.874Z,8.6
2022-11-07T07:31:04.456Z,8.5
2022-11-07T07:32:13.694Z,8.6
2022-11-07T07:33:18.655Z,8.5
2022-11-07T07:34:22.885Z,8.5
2022-11-07T07:35:27.583Z,8.6
2022-11-07T07:36:32.124Z,8.7
2022-11-07T07:37:36.884Z,8.6
2022-11-07T07:38:41.034Z,8.6
2022-11-07T07:39:45.222Z,8.6
2022-11-07T07:40:49.698Z,8.6
2022-11-07T07:41:53.858Z,8.7
2022-11-07T07:42:57.848Z,8.6
2022-11-07T07:44:02.522Z,8.6
2022-11-07T07:45:07.123Z,8.6
2022-11-07T07:46:11.562Z,8.9
2022-11-07T07:47:15.643Z,8.9
2022-11-07T07:48:19.838Z,8.8
2022-11-07T07:49:24.346Z,8.9
2022-11-07T07:50:28.940Z,8.8
2022-11-07T07:51:32.934Z,8.8
2022-11-07T07:52:37.134Z,8.8
2022-11-07T07:53:41.149Z,8.9
2022-11-07T07:54:45.313Z,8.8
2022-11-07T07:55:49.869Z,8.9
2022-11-07T07:56:57.028Z,8.9
2022-11-07T07:58:01.190Z,9.1
2022-11-07T07:59:05.607Z,9.1
2022-11-07T08:00:09.789Z,9.1
2022-11-07T08:01:14.273Z,9
2022-11-07T08:02:18.290Z,9
2022-11-07T08:03:22.409Z,9
2022-11-07T08:04:26.855Z,9
2022-11-07T08:05:30.989Z,9
2022-11-07T08:06:35.295Z,8.9
2022-11-07T08:07:39.608Z,8.9
2022-11-07T08:08:46.946Z,9
2022-11-07T08:09:51.443Z,8.8
2022-11-07T08:10:56.087Z,9
2022-11-07T08:12:03.654Z,9
2022-11-07T08:13:08.203Z,8.9
2022-11-07T08:14:12.743Z,9.1
2022-11-07T08:15:17.311Z,9.1
2022-11-07T08:16:21.506Z,9.1
2022-11-07T08:17:26.040Z,9.1
2022-11-07T08:18:30.451Z,9
2022-11-07T08:19:34.702Z,9
2022-11-07T08:20:39.345Z,9.1
2022-11-07T08:21:43.920Z,9.1
2022-11-07T08:22:48.456Z,9.1
2022-11-07T08:23:52.660Z,9.2
2022-11-07T08:24:57.071Z,9.3
2022-11-07T08:26:01.247Z,9.2
2022-11-07T08:27:05.848Z,9.1
2022-11-07T08:28:10.291Z,9.2
2022-11-07T08:29:14.542Z,9.3
2022-11-07T08:30:19.256Z,9.4
2022-11-07T08:31:23.644Z,9.3
2022-11-07T08:32:28.250Z,9.1
2022-11-07T08:33:32.701Z,9.2
2022-11-07T08:34:36.825Z,9.2
2022-11-07T08:35:42.777Z,9.2
2022-11-07T08:36:45.334Z,9.2
2022-11-07T08:37:49.499Z,9.2
2022-11-07T08:38:53.639Z,9.1
2022-11-07T08:39:57.703Z,9.1
2022-11-07T08:41:01.809Z,9.2
2022-11-07T08:42:06.440Z,9.2
2022-11-07T08:43:10.894Z,9.1
2022-11-07T08:44:15.268Z,9.2
2022-11-07T08:45:19.515Z,9.3
2022-11-07T08:46:23.725Z,9.3
2022-11-07T08:47:27.715Z,9.2
2022-11-07T08:48:31.937Z,9.3
2022-11-07T08:49:36.311Z,9.4
2022-11-07T08:50:40.429Z,9.3
2022-11-07T08:51:44.503Z,9.4
2022-11-07T08:52:49.108Z,9.4
2022-11-07T08:53:53.224Z,9.4
2022-11-07T08:54:57.253Z,9.4
2022-11-07T08:56:01.385Z,9.4
2022-11-07T08:57:08.535Z,9.4
2022-11-07T08:58:12.518Z,9.3
2022-11-07T08:59:16.670Z,9.3
2022-11-07T09:00:20.683Z,9.3
2022-11-07T09:01:25.919Z,9.3
2022-11-07T09:03:46.473Z,9.3
2022-11-07T09:04:41.103Z,9.4
2022-11-07T09:05:45.210Z,9.5
2022-11-07T09:06:49.679Z,9.5
2022-11-07T09:07:53.918Z,9.6
2022-11-07T09:08:57.999Z,9.6
2022-11-07T09:10:02.663Z,9.7
2022-11-07T09:11:07.246Z,9.6
2022-11-07T09:12:11.674Z,9.6
2022-11-07T09:13:16.067Z,9.6
2022-11-07T09:14:20.351Z,9.4
2022-11-07T09:15:24.402Z,9.6
2022-11-07T09:16:28.487Z,9.6
2022-11-07T09:17:32.607Z,9.5
2022-11-07T09:18:36.659Z,9.5
2022-11-07T09:19:40.606Z,9.6
2022-11-07T09:20:44.889Z,9.6
2022-11-07T09:21:49.421Z,9.6
2022-11-07T09:22:53.483Z,9.5
2022-11-07T09:23:57.499Z,9.6
2022-11-07T09:25:01.589Z,9.7
2022-11-07T09:26:06.118Z,9.5
2022-11-07T09:27:10.325Z,9.4
2022-11-07T09:28:14.214Z,9.4
2022-11-07T09:29:18.486Z,9.4
2022-11-07T09:30:22.979Z,9.4
2022-11-07T09:31:27.012Z,9.4
2022-11-07T09:32:44.219Z,9.4
2022-11-07T09:33:35.250Z,9.4
2022-11-07T09:34:39.967Z,9.5
2022-11-07T09:35:44.368Z,9.5
2022-11-07T09:36:48.806Z,9.8
2022-11-07T09:37:52.947Z,9.7
2022-11-07T09:38:57.139Z,9.6
2022-11-07T09:40:01.152Z,9.8
2022-11-07T09:41:05.743Z,9.8
2022-11-07T09:42:17.841Z,9.9
2022-11-07T09:43:27.000Z,10
2022-11-07T09:44:41.877Z,10.2
2022-11-07T09:45:54.104Z,10.5
2022-11-07T09:47:08.824Z,10.3
2022-11-07T09:48:12.916Z,10
2022-11-07T09:49:17.411Z,10.3
2022-11-07T09:50:27.073Z,10.1
2022-11-07T09:51:36.288Z,10
2022-11-07T09:52:40.333Z,9.9
2022-11-07T09:53:44.354Z,9.9
2022-11-07T09:54:48.499Z,10
2022-11-07T09:56:00.877Z,10.2
2022-11-07T09:57:05.313Z,10.3
2022-11-07T09:58:09.475Z,10.2
2022-11-07T09:59:20.064Z,10.3
2022-11-07T10:00:32.226Z,10.4
2022-11-07T10:01:36.463Z,10.1
2022-11-07T10:02:40.380Z,10.2
2022-11-07T10:04:51.491Z,10.2
2022-11-07T10:05:58.767Z,10.2
2022-11-07T10:07:05.902Z,10.2
2022-11-07T10:08:20.730Z,10.4
2022-11-07T10:09:29.807Z,10.5
2022-11-07T10:10:36.944Z,10.6
2022-11-07T10:11:51.708Z,10.9
2022-11-07T10:13:00.904Z,11.1
2022-11-07T10:14:15.653Z,11.2
2022-11-07T10:15:27.859Z,11.3
2022-11-07T10:16:37.473Z,11.3
2022-11-07T10:17:53.859Z,11.3
2022-11-07T10:19:04.514Z,11.5
2022-11-07T10:20:19.311Z,11.6
2022-11-07T10:21:37.440Z,11.7
2022-11-07T10:22:33.998Z,11.7
2022-11-07T10:23:43.591Z,11.7
2022-11-07T10:24:55.964Z,11.8
2022-11-07T10:26:05.514Z,11.7
2022-11-07T10:27:12.627Z,11.7
2022-11-07T10:28:16.778Z,11.3
2022-11-07T10:29:21.309Z,11.3
2022-11-07T10:30:25.307Z,11.5
2022-11-07T10:31:29.416Z,11.6
2022-11-07T10:32:33.539Z,11.8
2022-11-07T10:33:40.579Z,11.6
2022-11-07T10:34:54.301Z,11.7
2022-11-07T10:35:57.456Z,11.8
2022-11-07T10:37:01.994Z,11.9
2022-11-07T10:38:06.055Z,11.9
2022-11-07T10:39:15.802Z,12.1
2022-11-07T10:40:20.354Z,12
2022-11-07T10:41:24.343Z,11.9
2022-11-07T10:42:28.854Z,12.1
2022-11-07T10:43:33.267Z,12.1
2022-11-07T10:44:40.605Z,12
2022-11-07T10:45:44.715Z,12
2022-11-07T10:46:50.248Z,11.8
2022-11-07T10:47:53.360Z,11.8
2022-11-07T10:48:57.562Z,11.8
2022-11-07T10:50:02.007Z,11.8
2022-11-07T10:51:06.727Z,12
2022-11-07T10:52:11.136Z,11.7
2022-11-07T10:53:18.460Z,11.6
2022-11-07T10:54:22.843Z,11.8
2022-11-07T10:55:26.973Z,11.9
2022-11-07T10:56:31.099Z,12.1
2022-11-07T10:57:45.835Z,12
2022-11-07T10:58:50.336Z,11.8
2022-11-07T10:59:54.439Z,11.8
2022-11-07T11:00:58.607Z,12
2022-11-07T11:02:03.265Z,12.1
2022-11-07T11:03:15.504Z,12.1
2022-11-07T11:04:22.544Z,12.2
2022-11-07T11:05:27.156Z,12.3
2022-11-07T11:06:31.698Z,12.2
2022-11-07T11:07:36.279Z,12.3
2022-11-07T11:08:40.427Z,12.4
2022-11-07T11:09:44.856Z,12.3
2022-11-07T11:10:52.080Z,12.4
2022-11-07T11:11:56.651Z,12.5
2022-11-07T11:13:04.264Z,12.5
2022-11-07T11:14:08.291Z,12.5
2022-11-07T11:15:12.384Z,12.7
2022-11-07T11:16:16.460Z,12.3
2022-11-07T11:17:20.573Z,12.3
2022-11-07T11:18:24.644Z,12.5
2022-11-07T11:19:29.215Z,12.6
2022-11-07T11:20:41.383Z,12.6
2022-11-07T11:21:50.639Z,12.6
2022-11-07T11:22:55.087Z,12.1
2022-11-07T11:23:59.182Z,12.1
2022-11-07T11:25:03.849Z,11.7
2022-11-07T11:26:11.355Z,11.6
2022-11-07T11:27:25.752Z,11.7
2022-11-07T11:28:30.240Z,11.8
2022-11-07T11:29:39.858Z,11.7
2022-11-07T11:30:51.699Z,11.7
2022-11-07T11:31:59.240Z,12
2022-11-07T11:33:03.839Z,11.9
2022-11-07T11:34:13.559Z,11.9
2022-11-07T11:35:23.112Z,11.6
2022-11-07T11:36:35.259Z,11.5
2022-11-07T11:37:39.523Z,11.8
2022-11-07T11:38:43.612Z,11.9
2022-11-07T11:39:48.443Z,11.9
2022-11-07T11:41:01.713Z,11.8
2022-11-07T11:41:59.799Z,12.1
2022-11-07T11:43:04.396Z,12.2
2022-11-07T11:44:11.475Z,12.5
2022-11-07T11:45:18.623Z,12.5
2022-11-07T11:46:33.313Z,12.6
2022-11-07T11:47:37.471Z,12.5
2022-11-07T11:48:42.072Z,12.6
2022-11-07T11:49:54.275Z,12.4
2022-11-07T11:51:03.859Z,12.5
2022-11-07T11:52:08.139Z,12.8
2022-11-07T11:53:18.001Z,12.8
2022-11-07T11:54:21.934Z,12.7
2022-11-07T11:55:26.463Z,13
2022-11-07T11:56:30.886Z,13.1
2022-11-07T11:57:45.755Z,13
2022-11-07T11:59:00.488Z,12.7
2022-11-07T12:00:13.163Z,12.8
2022-11-07T12:01:20.309Z,12.5
2022-11-07T12:02:32.492Z,12.4
2022-11-07T12:03:47.041Z,12.6
2022-11-07T12:04:56.366Z,12.5
2022-11-07T12:06:11.086Z,12.6
2022-11-07T12:07:15.645Z,12.7
2022-11-07T12:08:25.203Z,12.4
2022-11-07T12:09:37.556Z,12.5
2022-11-07T12:10:44.554Z,12.6
2022-11-07T12:11:56.845Z,12.6
2022-11-07T12:13:04.013Z,12.3
2022-11-07T12:14:13.749Z,12.4
2022-11-07T12:15:28.713Z,12.5
2022-11-07T12:16:43.077Z,12.7
2022-11-07T12:17:55.327Z,12.6
2022-11-07T12:19:04.592Z,12.7
2022-11-07T12:20:14.242Z,12.8
2022-11-07T12:21:23.757Z,12.8
2022-11-07T12:22:34.114Z,12.7
2022-11-07T12:23:43.838Z,12.8
2022-11-07T12:24:48.332Z,12.7
2022-11-07T12:25:57.970Z,12.7
2022-11-07T12:27:02.626Z,12.8
2022-11-07T12:28:12.281Z,12.8
2022-11-07T12:29:26.900Z,13
2022-11-07T12:30:36.076Z,12.9
2022-11-07T12:31:48.157Z,12.9
2022-11-07T12:33:02.577Z,12.7
2022-11-07T12:34:12.126Z,12.7
2022-11-07T12:35:21.796Z,12.6
2022-11-07T12:36:28.472Z,12.6
2022-11-07T12:37:40.823Z,12.4
2022-11-07T12:38:48.249Z,12.4
2022-11-07T12:40:00.498Z,12.3
2022-11-07T12:41:07.114Z,12.4
2022-11-07T12:42:14.210Z,12.2
2022-11-07T12:43:23.417Z,12.3
2022-11-07T12:44:33.193Z,12.1
2022-11-07T12:45:40.306Z,12.1
2022-11-07T12:46:54.909Z,12
2022-11-07T12:47:59.026Z,12.2
2022-11-07T12:49:11.255Z,12.1
2022-11-07T12:50:18.619Z,12.1
2022-11-07T12:51:31.099Z,12.1
2022-11-07T12:52:40.831Z,12.3
2022-11-07T12:53:51.298Z,12.5
2022-11-07T12:55:06.043Z,12.5
2022-11-07T12:56:20.859Z,12.6
2022-11-07T12:57:25.491Z,12.4
2022-11-07T12:58:29.502Z,12.3
2022-11-07T12:59:33.687Z,12.3
2022-11-07T13:00:38.108Z,12.3
2022-11-07T13:01:42.531Z,12.3
2022-11-07T13:02:49.308Z,12.4
2022-11-07T13:04:06.447Z,12.5
2022-11-07T13:05:23.669Z,12.4
2022-11-07T13:06:38.190Z,12.4
2022-11-07T13:07:43.078Z,12.5
2022-11-07T13:08:47.436Z,12.6
2022-11-07T13:09:59.537Z,12.7
2022-11-07T13:11:09.402Z,12.6
2022-11-07T13:12:21.399Z,12.4
2022-11-07T13:13:32.531Z,12.5
2022-11-07T13:14:41.603Z,12.5
2022-11-07T13:16:09.339Z,12.5
2022-11-07T13:16:50.016Z,12.6
2022-11-07T13:18:02.767Z,12.7
2022-11-07T13:19:14.846Z,12.5
2022-11-07T13:20:24.418Z,12.4
2022-11-07T13:21:28.687Z,12.3
2022-11-07T13:22:32.552Z,12.4
2022-11-07T13:23:36.751Z,12.3
2022-11-07T13:24:41.199Z,12.2
2022-11-07T13:25:51.383Z,12.2
2022-11-07T13:27:01.153Z,12.1
2022-11-07T13:28:05.383Z,12.2
2022-11-07T13:29:14.942Z,12.2
2022-11-07T13:30:27.314Z,12.3
2022-11-07T13:31:31.712Z,12.1
2022-11-07T13:32:35.803Z,12.2
2022-11-07T13:33:39.877Z,12.2
2022-11-07T13:34:44.054Z,12.1
2022-11-07T13:35:56.166Z,12.3
2022-11-07T13:37:00.381Z,12.3
2022-11-07T13:38:08.648Z,12.2
2022-11-07T13:39:14.574Z,12.2
2022-11-07T13:40:18.609Z,12
2022-11-07T13:41:28.414Z,12
2022-11-07T13:42:32.758Z,12
2022-11-07T13:43:36.902Z,12
2022-11-07T13:44:49.022Z,12
2022-11-07T13:45:53.230Z,11.9
2022-11-07T13:46:57.319Z,11.9
2022-11-07T13:48:04.385Z,11.9
2022-11-07T13:49:14.051Z,11.9
2022-11-07T13:50:20.677Z,11.9
2022-11-07T13:51:24.802Z,11.9
2022-11-07T13:52:35.429Z,12
2022-11-07T13:53:39.441Z,12
2022-11-07T13:54:49.041Z,11.9
2022-11-07T13:55:53.038Z,11.9
2022-11-07T13:57:07.453Z,11.7
2022-11-07T13:58:19.539Z,11.7
2022-11-07T13:59:23.709Z,11.7
2022-11-07T14:00:38.457Z,11.7
2022-11-07T14:01:43.014Z,11.6
2022-11-07T14:02:47.128Z,11.7
2022-11-07T14:03:51.638Z,11.8
2022-11-07T14:05:15.120Z,11.8
2022-11-07T14:06:10.382Z,11.8
2022-11-07T14:07:14.493Z,11.8
2022-11-07T14:08:19.123Z,11.9
2022-11-07T14:09:23.542Z,11.8
2022-11-07T14:10:27.537Z,11.8
2022-11-07T14:11:41.938Z,11.7
2022-11-07T14:12:46.426Z,11.7
2022-11-07T14:13:51.064Z,11.8
2022-11-07T14:14:55.065Z,11.6
2022-11-07T14:15:59.229Z,11.6
2022-11-07T14:17:03.301Z,11.5
2022-11-07T14:18:07.938Z,11.6
2022-11-07T14:19:15.457Z,11.6
2022-11-07T14:20:25.589Z,11.6
2022-11-07T14:21:29.802Z,11.5
2022-11-07T14:22:34.457Z,11.4
2022-11-07T14:23:39.075Z,11.5
2022-11-07T14:24:43.542Z,11.4
2022-11-07T14:25:50.737Z,11.5
2022-11-07T14:27:03.306Z,11.5
2022-11-07T14:28:07.881Z,11.4
2022-11-07T14:29:15.343Z,11.4
2022-11-07T14:30:22.738Z,11.4
2022-11-07T14:31:26.641Z,11.5
2022-11-07T14:32:32.222Z,11.5
2022-11-07T14:33:35.476Z,11.6
2022-11-07T14:34:40.007Z,11.5
2022-11-07T14:35:44.006Z,11.5
2022-11-07T14:36:48.198Z,11.3
2022-11-07T14:37:55.265Z,11.3
2022-11-07T14:38:59.415Z,11.3
2022-11-07T14:40:04.009Z,11.3
2022-11-07T14:41:08.514Z,11.3
2022-11-07T14:42:13.033Z,11.4
2022-11-07T14:43:17.143Z,11.4
2022-11-07T14:44:25.148Z,11.3
2022-11-07T14:45:56.890Z,11.3
2022-11-07T14:46:33.951Z,11.3
2022-11-07T14:47:38.029Z,11.2
2022-11-07T14:48:42.485Z,11.3
2022-11-07T14:49:46.629Z,11.4
2022-11-07T14:50:50.788Z,11.3
2022-11-07T14:51:55.937Z,11.3
2022-11-07T14:53:00.573Z,11.2
2022-11-07T14:54:05.146Z,11.2
2022-11-07T14:55:12.271Z,11.2
2022-11-07T14:56:24.461Z,11.1
2022-11-07T14:57:28.929Z,11.1
2022-11-07T14:58:33.610Z,11.2
2022-11-07T14:59:38.007Z,11.1
2022-11-07T15:00:42.146Z,11.2
2022-11-07T15:01:51.807Z,11.1